sensor_id;sensor_type;location;lat;lon;timestamp;pressure;altitude;pressure_sealevel;temperature
23992;BMP280;12205;50.600;4.608;2023-06-22T00:02:25;100523.28;;;23.40
23992;BMP280;12205;50.600;4.608;2023-06-22T00:04:52;100524.16;;;23.37
23992;BMP280;12205;50.600;4.608;2023-06-22T00:07:20;100525.97;;;23.30
23992;BMP280;12205;50.600;4.608;2023-06-22T00:09:48;100519.84;;;23.26
23992;BMP280;12205;50.600;4.608;2023-06-22T00:12:15;100524.66;;;23.22
23992;BMP280;12205;50.600;4.608;2023-06-22T00:14:42;100524.66;;;23.22
23992;BMP280;12205;50.600;4.608;2023-06-22T00:17:09;100528.59;;;23.21
23992;BMP280;12205;50.600;4.608;2023-06-22T00:19:36;100520.06;;;23.19
23992;BMP280;12205;50.600;4.608;2023-06-22T00:22:06;100519.75;;;23.17
23992;BMP280;12205;50.600;4.608;2023-06-22T00:24:33;100525.53;;;23.19
23992;BMP280;12205;50.600;4.608;2023-06-22T00:27:02;100511.91;;;23.19
23992;BMP280;12205;50.600;4.608;2023-06-22T00:29:31;100506.44;;;23.19
23992;BMP280;12205;50.600;4.608;2023-06-22T00:31:58;100497.06;;;23.20
23992;BMP280;12205;50.600;4.608;2023-06-22T00:34:25;100492.81;;;23.19
23992;BMP280;12205;50.600;4.608;2023-06-22T00:36:52;100497.50;;;23.19
23992;BMP280;12205;50.600;4.608;2023-06-22T00:39:19;100490.06;;;23.19
23992;BMP280;12205;50.600;4.608;2023-06-22T00:41:46;100487.66;;;23.21
23992;BMP280;12205;50.600;4.608;2023-06-22T00:44:15;100484.19;;;23.21
23992;BMP280;12205;50.600;4.608;2023-06-22T00:46:42;100476.44;;;23.19
23992;BMP280;12205;50.600;4.608;2023-06-22T00:49:09;100478.84;;;23.17
23992;BMP280;12205;50.600;4.608;2023-06-22T00:51:37;100475.78;;;23.15
23992;BMP280;12205;50.600;4.608;2023-06-22T00:54:11;100475.78;;;23.15
23992;BMP280;12205;50.600;4.608;2023-06-22T00:56:40;100479.72;;;23.14
23992;BMP280;12205;50.600;4.608;2023-06-22T00:59:08;100471.22;;;23.12
23992;BMP280;12205;50.600;4.608;2023-06-22T01:01:39;100474.38;;;23.10
23992;BMP280;12205;50.600;4.608;2023-06-22T01:04:08;100469.03;;;23.07
23992;BMP280;12205;50.600;4.608;2023-06-22T01:06:45;100466.03;;;23.05
23992;BMP280;12205;50.600;4.608;2023-06-22T01:09:19;100466.88;;;23.02
23992;BMP280;12205;50.600;4.608;2023-06-22T01:11:54;100470.94;;;22.97
23992;BMP280;12205;50.600;4.608;2023-06-22T01:14:29;100470.19;;;22.97
23992;BMP280;12205;50.600;4.608;2023-06-22T01:17:01;100469.53;;;22.93
23992;BMP280;12205;50.600;4.608;2023-06-22T01:19:39;100471.94;;;22.91
23992;BMP280;12205;50.600;4.608;2023-06-22T01:22:13;100474.34;;;22.88
23992;BMP280;12205;50.600;4.608;2023-06-22T01:24:55;100474.78;;;22.87
23992;BMP280;12205;50.600;4.608;2023-06-22T01:27:37;100476.41;;;22.84
23992;BMP280;12205;50.600;4.608;2023-06-22T01:30:11;100474.59;;;22.81
23992;BMP280;12205;50.600;4.608;2023-06-22T01:32:40;100469.13;;;22.81
23992;BMP280;12205;50.600;4.608;2023-06-22T01:35:09;100470.75;;;22.79
23992;BMP280;12205;50.600;4.608;2023-06-22T01:37:38;100470.03;;;22.78
23992;BMP280;12205;50.600;4.608;2023-06-22T01:40:08;100471.19;;;22.77
23992;BMP280;12205;50.600;4.608;2023-06-22T01:42:36;100463.47;;;22.76
23992;BMP280;12205;50.600;4.608;2023-06-22T01:45:09;100462.81;;;22.72
23992;BMP280;12205;50.600;4.608;2023-06-22T01:47:38;100460.53;;;22.70
23992;BMP280;12205;50.600;4.608;2023-06-22T01:50:07;100459.44;;;22.67
23992;BMP280;12205;50.600;4.608;2023-06-22T01:52:34;100457.16;;;22.66
23992;BMP280;12205;50.600;4.608;2023-06-22T01:55:01;100457.16;;;22.66
23992;BMP280;12205;50.600;4.608;2023-06-22T01:57:30;100458.66;;;22.67
23992;BMP280;12205;50.600;4.608;2023-06-22T02:00:02;100456.69;;;22.67
23992;BMP280;12205;50.600;4.608;2023-06-22T02:02:50;100459.88;;;22.66
23992;BMP280;12205;50.600;4.608;2023-06-22T02:05:20;100461.84;;;22.65
23992;BMP280;12205;50.600;4.608;2023-06-22T02:07:58;100457.28;;;22.62
23992;BMP280;12205;50.600;4.608;2023-06-22T02:10:32;100447.97;;;22.60
23992;BMP280;12205;50.600;4.608;2023-06-22T02:13:00;100451.59;;;22.57
23992;BMP280;12205;50.600;4.608;2023-06-22T02:15:28;100451.28;;;22.55
23992;BMP280;12205;50.600;4.608;2023-06-22T02:17:57;100451.28;;;22.55
23992;BMP280;12205;50.600;4.608;2023-06-22T02:20:24;100438.84;;;22.54
23992;BMP280;12205;50.600;4.608;2023-06-22T02:22:51;100432.63;;;22.53
23992;BMP280;12205;50.600;4.608;2023-06-22T02:25:19;100428.81;;;22.51
23992;BMP280;12205;50.600;4.608;2023-06-22T02:27:47;100423.03;;;22.48
23992;BMP280;12205;50.600;4.608;2023-06-22T02:30:16;100427.41;;;22.46
23992;BMP280;12205;50.600;4.608;2023-06-22T02:32:43;100427.50;;;22.42
23992;BMP280;12205;50.600;4.608;2023-06-22T02:35:13;100418.25;;;22.40
23992;BMP280;12205;50.600;4.608;2023-06-22T02:37:41;100415.63;;;22.36
23992;BMP280;12205;50.600;4.608;2023-06-22T02:40:09;100420.78;;;22.34
23992;BMP280;12205;50.600;4.608;2023-06-22T02:42:36;100424.69;;;22.33
23992;BMP280;12205;50.600;4.608;2023-06-22T02:45:04;100417.72;;;22.32
23992;BMP280;12205;50.600;4.608;2023-06-22T02:47:32;100412.25;;;22.32
23992;BMP280;12205;50.600;4.608;2023-06-22T02:50:00;100418.47;;;22.33
23992;BMP280;12205;50.600;4.608;2023-06-22T02:52:31;100411.50;;;22.32
23992;BMP280;12205;50.600;4.608;2023-06-22T02:55:00;100409.22;;;22.30
23992;BMP280;12205;50.600;4.608;2023-06-22T02:57:27;100410.75;;;22.31
23992;BMP280;12205;50.600;4.608;2023-06-22T02:59:55;100413.78;;;22.33
23992;BMP280;12205;50.600;4.608;2023-06-22T03:02:22;100411.41;;;22.35
23992;BMP280;12205;50.600;4.608;2023-06-22T03:04:49;100418.34;;;22.36
23992;BMP280;12205;50.600;4.608;2023-06-22T03:07:19;100425.34;;;22.37
23992;BMP280;12205;50.600;4.608;2023-06-22T03:09:49;100431.56;;;22.38
23992;BMP280;12205;50.600;4.608;2023-06-22T03:12:17;100426.84;;;22.38
23992;BMP280;12205;50.600;4.608;2023-06-22T03:14:54;100437.88;;;22.35
23992;BMP280;12205;50.600;4.608;2023-06-22T03:17:22;100437.13;;;22.34
23992;BMP280;12205;50.600;4.608;2023-06-22T03:19:49;100430.13;;;22.33
23992;BMP280;12205;50.600;4.608;2023-06-22T03:22:16;100433.19;;;22.35
23992;BMP280;12205;50.600;4.608;2023-06-22T03:24:43;100422.28;;;22.35
23992;BMP280;12205;50.600;4.608;2023-06-22T03:27:11;100422.28;;;22.35
23992;BMP280;12205;50.600;4.608;2023-06-22T03:29:40;100415.34;;;22.34
23992;BMP280;12205;50.600;4.608;2023-06-22T03:32:07;100426.22;;;22.34
23992;BMP280;12205;50.600;4.608;2023-06-22T03:34:34;100421.19;;;22.33
23992;BMP280;12205;50.600;4.608;2023-06-22T03:37:03;100423.16;;;22.32
23992;BMP280;12205;50.600;4.608;2023-06-22T03:39:32;100426.75;;;22.29
23992;BMP280;12205;50.600;4.608;2023-06-22T03:41:59;100422.50;;;22.28
23992;BMP280;12205;50.600;4.608;2023-06-22T03:44:27;100417.94;;;22.25
23992;BMP280;12205;50.600;4.608;2023-06-22T03:46:54;100418.81;;;22.22
23992;BMP280;12205;50.600;4.608;2023-06-22T03:49:22;100417.38;;;22.17
23992;BMP280;12205;50.600;4.608;2023-06-22T03:51:49;100414.34;;;22.15
23992;BMP280;12205;50.600;4.608;2023-06-22T03:54:16;100420.22;;;22.14
23992;BMP280;12205;50.600;4.608;2023-06-22T03:56:43;100423.72;;;22.14
23992;BMP280;12205;50.600;4.608;2023-06-22T03:59:10;100405.06;;;22.13
23992;BMP280;12205;50.600;4.608;2023-06-22T04:01:38;100413.56;;;22.15
23992;BMP280;12205;50.600;4.608;2023-06-22T04:04:06;100409.63;;;22.16
23992;BMP280;12205;50.600;4.608;2023-06-22T04:06:33;100404.19;;;22.16
23992;BMP280;12205;50.600;4.608;2023-06-22T04:09:00;100406.47;;;22.17
23992;BMP280;12205;50.600;4.608;2023-06-22T04:11:28;100402.56;;;22.18
23992;BMP280;12205;50.600;4.608;2023-06-22T04:13:55;100401.81;;;22.18
23992;BMP280;12205;50.600;4.608;2023-06-22T04:16:22;100408.78;;;22.19
23992;BMP280;12205;50.600;4.608;2023-06-22T04:18:50;100414.22;;;22.19
23992;BMP280;12205;50.600;4.608;2023-06-22T04:21:17;100411.50;;;22.19
23992;BMP280;12205;50.600;4.608;2023-06-22T04:23:45;100406.84;;;22.19
23992;BMP280;12205;50.600;4.608;2023-06-22T04:26:13;100404.84;;;22.20
23992;BMP280;12205;50.600;4.608;2023-06-22T04:28:40;100413.38;;;22.22
23992;BMP280;12205;50.600;4.608;2023-06-22T04:31:08;100414.88;;;22.23
23992;BMP280;12205;50.600;4.608;2023-06-22T04:33:35;100412.50;;;22.25
23992;BMP280;12205;50.600;4.608;2023-06-22T04:36:03;100407.03;;;22.25
23992;BMP280;12205;50.600;4.608;2023-06-22T04:38:31;100398.88;;;22.25
23992;BMP280;12205;50.600;4.608;2023-06-22T04:40:59;100403.13;;;22.26
23992;BMP280;12205;50.600;4.608;2023-06-22T04:43:27;100410.09;;;22.27
23992;BMP280;12205;50.600;4.608;2023-06-22T04:45:56;100407.78;;;22.25
23992;BMP280;12205;50.600;4.608;2023-06-22T04:48:29;100411.59;;;22.28
23992;BMP280;12205;50.600;4.608;2023-06-22T04:50:58;100407.69;;;22.29
23992;BMP280;12205;50.600;4.608;2023-06-22T04:53:30;100407.69;;;22.29
23992;BMP280;12205;50.600;4.608;2023-06-22T04:55:57;100410.00;;;22.31
23992;BMP280;12205;50.600;4.608;2023-06-22T04:58:24;100406.81;;;22.32
23992;BMP280;12205;50.600;4.608;2023-06-22T05:00:53;100406.38;;;22.34
23992;BMP280;12205;50.600;4.608;2023-06-22T05:03:24;100409.00;;;22.37
23992;BMP280;12205;50.600;4.608;2023-06-22T05:05:52;100405.06;;;22.38
23992;BMP280;12205;50.600;4.608;2023-06-22T05:08:19;100409.66;;;22.41
23992;BMP280;12205;50.600;4.608;2023-06-22T05:10:48;100411.16;;;22.42
23992;BMP280;12205;50.600;4.608;2023-06-22T05:13:15;100410.31;;;22.45
23992;BMP280;12205;50.600;4.608;2023-06-22T05:15:42;100401.25;;;22.48
23992;BMP280;12205;50.600;4.608;2023-06-22T05:18:10;100398.84;;;22.51
23992;BMP280;12205;50.600;4.608;2023-06-22T05:20:37;100395.25;;;22.54
23992;BMP280;12205;50.600;4.608;2023-06-22T05:23:04;100397.41;;;22.59
23992;BMP280;12205;50.600;4.608;2023-06-22T05:25:31;100398.94;;;22.60
23992;BMP280;12205;50.600;4.608;2023-06-22T05:28:00;100391.09;;;22.62
23992;BMP280;12205;50.600;4.608;2023-06-22T05:30:31;100391.75;;;22.66
23992;BMP280;12205;50.600;4.608;2023-06-22T05:32:58;100391.28;;;22.67
23992;BMP280;12205;50.600;4.608;2023-06-22T05:35:25;100392.41;;;22.70
23992;BMP280;12205;50.600;4.608;2023-06-22T05:37:52;100399.69;;;22.73
23992;BMP280;12205;50.600;4.608;2023-06-22T05:40:19;100398.50;;;22.74
23992;BMP280;12205;50.600;4.608;2023-06-22T05:42:46;100397.91;;;22.79
23992;BMP280;12205;50.600;4.608;2023-06-22T05:45:15;100401.28;;;22.83
23992;BMP280;12205;50.600;4.608;2023-06-22T05:47:42;100404.22;;;22.89
23992;BMP280;12205;50.600;4.608;2023-06-22T05:50:09;100400.19;;;22.94
23992;BMP280;12205;50.600;4.608;2023-06-22T05:52:36;100387.19;;;22.98
23992;BMP280;12205;50.600;4.608;2023-06-22T05:55:04;100388.28;;;23.00
23992;BMP280;12205;50.600;4.608;2023-06-22T05:57:32;100388.13;;;23.04
23992;BMP280;12205;50.600;4.608;2023-06-22T05:59:59;100382.56;;;23.07
23992;BMP280;12205;50.600;4.608;2023-06-22T06:02:27;100380.91;;;23.10
23992;BMP280;12205;50.600;4.608;2023-06-22T06:04:54;100371.81;;;23.13
23992;BMP280;12205;50.600;4.608;2023-06-22T06:07:21;100368.22;;;23.16
23992;BMP280;12205;50.600;4.608;2023-06-22T06:09:48;100361.88;;;23.19
23992;BMP280;12205;50.600;4.608;2023-06-22T06:12:16;100364.59;;;23.19
23992;BMP280;12205;50.600;4.608;2023-06-22T06:14:43;100349.44;;;23.18
23992;BMP280;12205;50.600;4.608;2023-06-22T06:17:10;100350.19;;;23.19
23992;BMP280;12205;50.600;4.608;2023-06-22T06:19:38;100346.28;;;23.20
23992;BMP280;12205;50.600;4.608;2023-06-22T06:22:05;100338.84;;;23.20
23992;BMP280;12205;50.600;4.608;2023-06-22T06:24:33;100340.69;;;23.23
23992;BMP280;12205;50.600;4.608;2023-06-22T06:27:00;100341.31;;;23.27
23992;BMP280;12205;50.600;4.608;2023-06-22T06:29:30;100330.16;;;23.35
23992;BMP280;12205;50.600;4.608;2023-06-22T06:31:57;100325.63;;;23.41
23992;BMP280;12205;50.600;4.608;2023-06-22T06:34:24;100327.00;;;23.45
23992;BMP280;12205;50.600;4.608;2023-06-22T06:36:53;100330.38;;;23.49
23992;BMP280;12205;50.600;4.608;2023-06-22T06:39:21;100328.59;;;23.56
23992;BMP280;12205;50.600;4.608;2023-06-22T06:41:48;100329.97;;;23.60
23992;BMP280;12205;50.600;4.608;2023-06-22T06:44:15;100327.41;;;23.66
23992;BMP280;12205;50.600;4.608;2023-06-22T06:46:42;100318.19;;;23.73
23992;BMP280;12205;50.600;4.608;2023-06-22T06:49:09;100307.59;;;23.75
23992;BMP280;12205;50.600;4.608;2023-06-22T06:51:36;100297.28;;;23.79
23992;BMP280;12205;50.600;4.608;2023-06-22T06:54:05;100292.44;;;23.83
23992;BMP280;12205;50.600;4.608;2023-06-22T06:56:32;100303.22;;;23.86
23992;BMP280;12205;50.600;4.608;2023-06-22T06:58:59;100280.47;;;23.89
23992;BMP280;12205;50.600;4.608;2023-06-22T07:01:27;100276.97;;;23.89
23992;BMP280;12205;50.600;4.608;2023-06-22T07:03:59;100264.22;;;23.86
23992;BMP280;12205;50.600;4.608;2023-06-22T07:06:27;100249.38;;;23.87
23992;BMP280;12205;50.600;4.608;2023-06-22T07:08:57;100253.31;;;23.86
23992;BMP280;12205;50.600;4.608;2023-06-22T07:11:26;100234.50;;;23.79
23992;BMP280;12205;50.600;4.608;2023-06-22T07:13:53;100233.09;;;23.74
23992;BMP280;12205;50.600;4.608;2023-06-22T07:16:21;100226.44;;;23.75
23992;BMP280;12205;50.600;4.608;2023-06-22T07:18:48;100222.34;;;23.80
23992;BMP280;12205;50.600;4.608;2023-06-22T07:21:15;100225.69;;;23.84
23992;BMP280;12205;50.600;4.608;2023-06-22T07:23:42;100235.72;;;23.87
23992;BMP280;12205;50.600;4.608;2023-06-22T07:26:10;100234.50;;;23.88
23992;BMP280;12205;50.600;4.608;2023-06-22T07:28:39;100236.97;;;23.95
23992;BMP280;12205;50.600;4.608;2023-06-22T07:31:07;100248.78;;;24.01
23992;BMP280;12205;50.600;4.608;2023-06-22T07:33:34;100255.78;;;24.02
23992;BMP280;12205;50.600;4.608;2023-06-22T07:36:01;100261.25;;;24.02
23992;BMP280;12205;50.600;4.608;2023-06-22T07:38:29;100264.25;;;24.04
23992;BMP280;12205;50.600;4.608;2023-06-22T07:40:56;100270.34;;;24.08
23992;BMP280;12205;50.600;4.608;2023-06-22T07:43:23;100263.38;;;24.07
23992;BMP280;12205;50.600;4.608;2023-06-22T07:45:52;100264.88;;;24.08
23992;BMP280;12205;50.600;4.608;2023-06-22T07:48:21;100260.94;;;24.09
23992;BMP280;12205;50.600;4.608;2023-06-22T07:50:48;100249.09;;;24.12
23992;BMP280;12205;50.600;4.608;2023-06-22T07:53:15;100254.56;;;24.12
23992;BMP280;12205;50.600;4.608;2023-06-22T07:55:43;100248.19;;;24.16
23992;BMP280;12205;50.600;4.608;2023-06-22T07:58:10;100261.41;;;24.17
23992;BMP280;12205;50.600;4.608;2023-06-22T08:00:37;100257.91;;;24.17
23992;BMP280;12205;50.600;4.608;2023-06-22T08:03:08;100252.75;;;24.19
23992;BMP280;12205;50.600;4.608;2023-06-22T08:05:35;100246.97;;;24.26
23992;BMP280;12205;50.600;4.608;2023-06-22T08:08:03;100256.25;;;24.28
23992;BMP280;12205;50.600;4.608;2023-06-22T08:10:30;100249.13;;;24.31
23992;BMP280;12205;50.600;4.608;2023-06-22T08:12:57;100257.59;;;24.33
23992;BMP280;12205;50.600;4.608;2023-06-22T08:15:26;100255.19;;;24.35
23992;BMP280;12205;50.600;4.608;2023-06-22T08:17:54;100257.28;;;24.40
23992;BMP280;12205;50.600;4.608;2023-06-22T08:20:22;100254.88;;;24.42
23992;BMP280;12205;50.600;4.608;2023-06-22T08:22:49;100248.50;;;24.45
23992;BMP280;12205;50.600;4.608;2023-06-22T08:25:16;100244.56;;;24.46
23992;BMP280;12205;50.600;4.608;2023-06-22T08:27:46;100247.91;;;24.50
23992;BMP280;12205;50.600;4.608;2023-06-22T08:30:14;100238.47;;;24.51
23992;BMP280;12205;50.600;4.608;2023-06-22T08:32:41;100234.81;;;24.54
23992;BMP280;12205;50.600;4.608;2023-06-22T08:35:09;100242.41;;;24.60
23992;BMP280;12205;50.600;4.608;2023-06-22T08:37:38;100246.22;;;24.62
23992;BMP280;12205;50.600;4.608;2023-06-22T08:40:07;100244.84;;;24.67
23992;BMP280;12205;50.600;4.608;2023-06-22T08:42:36;100252.44;;;24.63
23992;BMP280;12205;50.600;4.608;2023-06-22T08:45:04;100250.91;;;24.62
23992;BMP280;12205;50.600;4.608;2023-06-22T08:47:32;100257.28;;;24.59
23992;BMP280;12205;50.600;4.608;2023-06-22T08:49:59;100268.22;;;24.59
23992;BMP280;12205;50.600;4.608;2023-06-22T08:52:28;100267.16;;;24.56
23992;BMP280;12205;50.600;4.608;2023-06-22T08:54:57;100263.56;;;24.50
23992;BMP280;12205;50.600;4.608;2023-06-22T08:57:25;100266.44;;;24.46
23992;BMP280;12205;50.600;4.608;2023-06-22T08:59:52;100280.69;;;24.41
23992;BMP280;12205;50.600;4.608;2023-06-22T09:02:19;100288.00;;;24.35
23992;BMP280;12205;50.600;4.608;2023-06-22T09:04:46;100299.22;;;24.28
23992;BMP280;12205;50.600;4.608;2023-06-22T09:07:14;100314.38;;;24.20
23992;BMP280;12205;50.600;4.608;2023-06-22T09:09:48;100326.03;;;24.11
23992;BMP280;12205;50.600;4.608;2023-06-22T09:12:16;100328.91;;;23.98
23992;BMP280;12205;50.600;4.608;2023-06-22T09:14:46;100353.16;;;23.87
23992;BMP280;12205;50.600;4.608;2023-06-22T09:17:13;100354.47;;;23.73
23992;BMP280;12205;50.600;4.608;2023-06-22T09:19:40;100352.56;;;23.61
23992;BMP280;12205;50.600;4.608;2023-06-22T09:22:08;100354.06;;;23.53
23992;BMP280;12205;50.600;4.608;2023-06-22T09:24:35;100345.34;;;23.45
23992;BMP280;12205;50.600;4.608;2023-06-22T09:27:03;100326.97;;;23.36
23992;BMP280;12205;50.600;4.608;2023-06-22T09:29:31;100306.91;;;23.30
23992;BMP280;12205;50.600;4.608;2023-06-22T09:31:59;100301.31;;;23.24
23992;BMP280;12205;50.600;4.608;2023-06-22T09:34:26;100290.94;;;23.19
23992;BMP280;12205;50.600;4.608;2023-06-22T09:36:53;100279.41;;;23.15
23992;BMP280;12205;50.600;4.608;2023-06-22T09:39:21;100278.78;;;23.11
23992;BMP280;12205;50.600;4.608;2023-06-22T09:41:48;100270.31;;;23.09
23992;BMP280;12205;50.600;4.608;2023-06-22T09:44:15;100266.47;;;23.06
23992;BMP280;12205;50.600;4.608;2023-06-22T09:46:43;100248.72;;;23.02
23992;BMP280;12205;50.600;4.608;2023-06-22T09:49:11;100244.19;;;22.99
23992;BMP280;12205;50.600;4.608;2023-06-22T09:51:38;100224.47;;;22.95
23992;BMP280;12205;50.600;4.608;2023-06-22T09:54:05;100208.69;;;22.89
23992;BMP280;12205;50.600;4.608;2023-06-22T09:56:32;100183.53;;;22.85
23992;BMP280;12205;50.600;4.608;2023-06-22T09:58:59;100163.03;;;22.81
23992;BMP280;12205;50.600;4.608;2023-06-22T10:01:26;100142.28;;;22.74
23992;BMP280;12205;50.600;4.608;2023-06-22T10:03:55;100101.97;;;22.69
23992;BMP280;12205;50.600;4.608;2023-06-22T10:06:23;100069.84;;;22.64
23992;BMP280;12205;50.600;4.608;2023-06-22T10:08:51;100047.13;;;22.58
23992;BMP280;12205;50.600;4.608;2023-06-22T10:11:18;100020.13;;;22.51
23992;BMP280;12205;50.600;4.608;2023-06-22T10:13:45;99998.63;;;22.43
23992;BMP280;12205;50.600;4.608;2023-06-22T10:16:12;99993.44;;;22.36
23992;BMP280;12205;50.600;4.608;2023-06-22T10:18:39;99976.75;;;22.25
23992;BMP280;12205;50.600;4.608;2023-06-22T10:21:08;99964.59;;;22.17
23992;BMP280;12205;50.600;4.608;2023-06-22T10:23:35;99945.50;;;22.07
23992;BMP280;12205;50.600;4.608;2023-06-22T10:26:02;99933.03;;;21.97
23992;BMP280;12205;50.600;4.608;2023-06-22T10:28:29;99924.81;;;21.88
23992;BMP280;12205;50.600;4.608;2023-06-22T10:30:56;99926.91;;;21.84
23992;BMP280;12205;50.600;4.608;2023-06-22T10:33:23;99913.63;;;21.86
23992;BMP280;12205;50.600;4.608;2023-06-22T10:35:50;99914.25;;;21.90
23992;BMP280;12205;50.600;4.608;2023-06-22T10:38:19;99927.44;;;21.92
23992;BMP280;12205;50.600;4.608;2023-06-22T10:40:46;99927.28;;;21.95
23992;BMP280;12205;50.600;4.608;2023-06-22T10:43:13;99949.69;;;21.99
23992;BMP280;12205;50.600;4.608;2023-06-22T10:45:40;99952.09;;;21.97
23992;BMP280;12205;50.600;4.608;2023-06-22T10:48:07;99978.69;;;21.93
23992;BMP280;12205;50.600;4.608;2023-06-22T10:50:34;99982.59;;;21.92
23992;BMP280;12205;50.600;4.608;2023-06-22T10:53:01;99970.84;;;21.95
23992;BMP280;12205;50.600;4.608;2023-06-22T10:55:30;99968.44;;;21.97
23992;BMP280;12205;50.600;4.608;2023-06-22T10:57:57;99979.00;;;21.95
23992;BMP280;12205;50.600;4.608;2023-06-22T11:00:24;99982.59;;;21.92
23992;BMP280;12205;50.600;4.608;2023-06-22T11:02:51;99991.50;;;21.83
23992;BMP280;12205;50.600;4.608;2023-06-22T11:05:18;99996.41;;;21.76
23992;BMP280;12205;50.600;4.608;2023-06-22T11:07:45;99984.34;;;21.64
23992;BMP280;12205;50.600;4.608;2023-06-22T11:10:14;99988.97;;;21.54
23992;BMP280;12205;50.600;4.608;2023-06-22T11:12:43;99990.00;;;21.35
23992;BMP280;12205;50.600;4.608;2023-06-22T11:15:10;99984.72;;;21.31
23992;BMP280;12205;50.600;4.608;2023-06-22T11:17:37;99973.94;;;21.27
23992;BMP280;12205;50.600;4.608;2023-06-22T11:20:06;99961.88;;;21.29
23992;BMP280;12205;50.600;4.608;2023-06-22T11:22:37;99966.09;;;21.30
23992;BMP280;12205;50.600;4.608;2023-06-22T11:25:06;99970.25;;;21.21
23992;BMP280;12205;50.600;4.608;2023-06-22T11:27:34;99968.88;;;21.17
23992;BMP280;12205;50.600;4.608;2023-06-22T11:30:03;99955.72;;;21.15
23992;BMP280;12205;50.600;4.608;2023-06-22T11:32:30;99926.34;;;21.10
23992;BMP280;12205;50.600;4.608;2023-06-22T11:34:57;99924.84;;;21.09
23992;BMP280;12205;50.600;4.608;2023-06-22T11:37:24;99907.25;;;21.01
23992;BMP280;12205;50.600;4.608;2023-06-22T11:39:51;99896.94;;;20.96
23992;BMP280;12205;50.600;4.608;2023-06-22T11:42:20;99883.47;;;20.92
23992;BMP280;12205;50.600;4.608;2023-06-22T11:44:49;99875.13;;;20.86
23992;BMP280;12205;50.600;4.608;2023-06-22T11:47:17;99879.00;;;20.85
23992;BMP280;12205;50.600;4.608;2023-06-22T11:49:44;99881.53;;;20.80
23992;BMP280;12205;50.600;4.608;2023-06-22T11:52:12;99884.69;;;20.78
23992;BMP280;12205;50.600;4.608;2023-06-22T11:54:39;99874.38;;;20.73
23992;BMP280;12205;50.600;4.608;2023-06-22T11:57:06;99879.59;;;20.67
23992;BMP280;12205;50.600;4.608;2023-06-22T11:59:34;99878.44;;;20.56
23992;BMP280;12205;50.600;4.608;2023-06-22T12:02:01;99880.50;;;20.52
23992;BMP280;12205;50.600;4.608;2023-06-22T12:04:29;99873.88;;;20.53
23992;BMP280;12205;50.600;4.608;2023-06-22T12:06:56;99859.09;;;20.54
23992;BMP280;12205;50.600;4.608;2023-06-22T12:09:24;99850.63;;;20.52
23992;BMP280;12205;50.600;4.608;2023-06-22T12:11:51;99853.03;;;20.50
23992;BMP280;12205;50.600;4.608;2023-06-22T12:14:18;99860.84;;;20.48
23992;BMP280;12205;50.600;4.608;2023-06-22T12:16:45;99852.81;;;20.44
23992;BMP280;12205;50.600;4.608;2023-06-22T12:19:12;99858.34;;;20.40
23992;BMP280;12205;50.600;4.608;2023-06-22T12:21:41;99852.69;;;20.35
23992;BMP280;12205;50.600;4.608;2023-06-22T12:24:11;99856.28;;;20.32
23992;BMP280;12205;50.600;4.608;2023-06-22T12:26:38;99843.69;;;20.25
23992;BMP280;12205;50.600;4.608;2023-06-22T12:29:05;99823.16;;;20.24
23992;BMP280;12205;50.600;4.608;2023-06-22T12:31:32;99819.81;;;20.20
23992;BMP280;12205;50.600;4.608;2023-06-22T12:33:59;99821.88;;;20.16
23992;BMP280;12205;50.600;4.608;2023-06-22T12:36:26;99820.91;;;20.10
23992;BMP280;12205;50.600;4.608;2023-06-22T12:38:55;99807.84;;;20.04
23992;BMP280;12205;50.600;4.608;2023-06-22T12:41:22;99793.97;;;20.02
23992;BMP280;12205;50.600;4.608;2023-06-22T12:43:49;99784.09;;;19.96
23992;BMP280;12205;50.600;4.608;2023-06-22T12:46:16;99773.25;;;19.96
23992;BMP280;12205;50.600;4.608;2023-06-22T12:48:43;99764.88;;;19.90
23992;BMP280;12205;50.600;4.608;2023-06-22T12:51:11;99755.78;;;19.84
23992;BMP280;12205;50.600;4.608;2023-06-22T12:53:38;99748.06;;;19.82
23992;BMP280;12205;50.600;4.608;2023-06-22T12:56:07;99746.25;;;19.79
23992;BMP280;12205;50.600;4.608;2023-06-22T12:58:34;99763.25;;;19.80
23992;BMP280;12205;50.600;4.608;2023-06-22T13:01:01;99752.97;;;19.75
23992;BMP280;12205;50.600;4.608;2023-06-22T13:03:28;99755.22;;;19.76
23992;BMP280;12205;50.600;4.608;2023-06-22T13:05:55;99750.56;;;19.77
23992;BMP280;12205;50.600;4.608;2023-06-22T13:08:23;99749.38;;;19.78
23992;BMP280;12205;50.600;4.608;2023-06-22T13:10:50;99738.09;;;19.79
23992;BMP280;12205;50.600;4.608;2023-06-22T13:13:18;99727.16;;;19.83
23992;BMP280;12205;50.600;4.608;2023-06-22T13:15:45;99715.00;;;19.88
23992;BMP280;12205;50.600;4.608;2023-06-22T13:18:12;99728.22;;;19.85
23992;BMP280;12205;50.600;4.608;2023-06-22T13:20:39;99711.53;;;19.87
23992;BMP280;12205;50.600;4.608;2023-06-22T13:23:06;99711.81;;;19.89
23992;BMP280;12205;50.600;4.608;2023-06-22T13:25:34;99692.81;;;19.89
23992;BMP280;12205;50.600;4.608;2023-06-22T13:28:01;99693.94;;;19.92
23992;BMP280;12205;50.600;4.608;2023-06-22T13:30:29;99693.03;;;19.95
23992;BMP280;12205;50.600;4.608;2023-06-22T13:32:57;99686.53;;;19.92
23992;BMP280;12205;50.600;4.608;2023-06-22T13:35:24;99694.34;;;19.90
23992;BMP280;12205;50.600;4.608;2023-06-22T13:37:51;99692.81;;;19.89
23992;BMP280;12205;50.600;4.608;2023-06-22T13:40:19;99698.25;;;19.89
23992;BMP280;12205;50.600;4.608;2023-06-22T13:42:46;99695.88;;;19.91
23992;BMP280;12205;50.600;4.608;2023-06-22T13:45:13;99688.72;;;19.97
23992;BMP280;12205;50.600;4.608;2023-06-22T13:47:43;99683.28;;;19.97
23992;BMP280;12205;50.600;4.608;2023-06-22T13:50:10;99679.81;;;19.97
23992;BMP280;12205;50.600;4.608;2023-06-22T13:52:38;99676.91;;;19.91
23992;BMP280;12205;50.600;4.608;2023-06-22T13:55:06;99676.56;;;19.89
23992;BMP280;12205;50.600;4.608;2023-06-22T13:57:33;99664.53;;;19.90
23992;BMP280;12205;50.600;4.608;2023-06-22T14:00:01;99658.13;;;19.84
23992;BMP280;12205;50.600;4.608;2023-06-22T14:02:37;99661.59;;;19.84
23992;BMP280;12205;50.600;4.608;2023-06-22T14:05:07;99665.94;;;19.82